Latest Weather Observations for Avalon

IDV60801

Issued at 10:32 am EDT Sunday 4 December 2016 (issued every 30 minutes, with the page automatically refreshed every 10 minutes)

About weather observations | Map of weather stations | Latest weather observations for VIC | Other Formats
Station Details ID: 087113 Name: AVALON AIRPORT Lat: -38.03 Lon: 144.48 Height: 10.6 m
Data from the previous 72 hours. | See also: Recent months at Avalon
Date/Time
EDT
Temp
°C
App
Temp
°C
Dew
Point
°C
Rel
Hum
%
Delta-T
°C
Wind Press
QNH
hPa
Press
MSL
hPa
Rain since
9am
mm
Dir  Spd
km/h
Gust
km/h
Spd
kts
Gust
kts
04/10:30am 21.2 19.8 14.6 66 3.9 ESE 15 20 8 11 1009.0 1009.0 0.0
04/10:00am 19.8 17.9 13.0 65 3.9 ESE 15 20 8 11 1009.5 1009.5 0.0
04/09:30am 19.4 18.1 12.4 64 3.9 ESE 11 15 6 8 1009.7 1009.7 0.0
04/09:00am 17.9 16.2 12.6 71 3.0 ENE 13 17 7 9 1010.1 1010.1 0.0
04/08:30am 16.3 15.2 13.0 81 1.8 NE 11 15 6 8 1010.1 1010.1 0.0
04/08:00am 14.6 16.0 14.4 99 0.1 CALM 0 0 0 0 1010.3 1010.3 0.0
04/07:30am 11.8 12.3 11.6 99 0.1 CALM 0 0 0 0 1010.3 1010.3 0.0
04/07:00am 10.8 9.3 10.6 99 0.1 N 9 11 5 6 1010.6 1010.6 0.0
04/06:30am 9.1 7.2 9.0 99 0.0 NNW 9 11 5 6 1010.7 1010.7 0.0
04/06:00am 8.8 6.8 8.7 99 0.0 NNW 9 11 5 6 1010.8 1010.8 0.0
04/05:30am 8.9 6.9 8.8 99 0.0 NW 9 9 5 5 1010.8 1010.8 0.0
04/05:00am 9.6 8.2 9.5 99 0.0 WNW 7 9 4 5 1010.9 1010.9 0.0
04/04:30am 9.4 7.6 9.3 99 0.0 WNW 9 11 5 6 1011.0 1011.0 0.0
04/04:00am 9.6 7.8 9.5 99 0.0 NW 9 9 5 5 1011.1 1011.1 0.0
04/03:30am 9.8 8.4 9.7 99 0.1 NW 7 9 4 5 1011.0 1011.0 0.0
04/03:00am 9.7 8.3 9.6 99 0.0 WNW 7 9 4 5 1011.4 1011.4 0.0
04/02:30am 9.5 7.6 9.0 97 0.2 NNW 9 9 5 5 1011.9 1011.9 0.0
04/02:00am 9.7 7.7 8.8 94 0.4 NNW 9 11 5 6 1012.2 1012.2 0.0
04/01:30am 10.2 8.6 8.8 91 0.7 WNW 7 9 4 5 1012.6 1012.6 0.0
04/01:00am 10.6 9.0 8.9 89 0.8 WNW 7 9 4 5 1013.1 1013.1 0.0
04/12:30am 12.2 12.3 10.3 88 1.0 CALM 0 0 0 0 1013.4 1013.4 0.0
04/12:00am 12.0 11.3 10.1 88 1.0 SW 4 6 2 3 1013.8 1013.8 0.0
 
Date/Time
EDT
Temp
°C
App
Temp
°C
Dew
Point
°C
Rel
Hum
%
Delta-T
°C
Wind Press
QNH
hPa
Press
MSL
hPa
Rain since
9am
mm
Dir  Spd
km/h
Gust
km/h
Spd
kts
Gust
kts
03/11:30pm 12.3 10.6 9.9 85 1.2 SE 9 13 5 7 1014.0 1014.0 0.0
03/11:00pm 12.9 10.9 10.3 84 1.3 SE 11 13 6 7 1014.4 1014.4 0.0
03/10:30pm 13.6 11.7 10.6 82 1.6 SE 11 15 6 8 1014.6 1014.6 0.0
03/10:00pm 14.1 11.8 10.3 78 2.0 SE 13 17 7 9 1014.4 1014.4 0.0
03/09:30pm 15.0 12.7 10.4 74 2.4 SE 13 19 7 10 1014.4 1014.4 0.0
03/09:00pm 15.4 12.9 9.7 69 3.0 SE 13 17 7 9 1014.3 1014.3 0.0
03/08:30pm 16.6 13.6 9.3 62 3.8 SE 15 19 8 10 1014.2 1014.2 0.0
03/08:00pm 18.1 15.2 9.7 58 4.4 ESE 15 19 8 10 1013.9 1013.9 0.0
03/07:30pm 19.5 16.1 10.5 56 4.9 ESE 19 24 10 13 1014.0 1014.0 0.0
03/07:00pm 19.9 16.0 9.5 51 5.5 ESE 20 26 11 14 1013.7 1013.7 0.0
03/06:30pm 20.6 17.1 11.0 54 5.3 ESE 20 26 11 14 1013.6 1013.6 0.0
03/06:00pm 20.9 16.6 7.9 43 6.7 SE 20 26 11 14 1013.4 1013.4 0.0
03/05:30pm 21.2 16.6 6.7 39 7.4 SE 20 26 11 14 1013.6 1013.6 0.0
03/05:00pm 21.9 17.1 5.8 35 8.1 SE 20 28 11 15 1013.9 1013.9 0.0
03/04:30pm 21.7 16.9 5.6 35 8.0 ESE 20 28 11 15 1014.1 1014.1 0.0
03/04:00pm 21.3 15.9 6.4 38 7.5 ESE 24 30 13 16 1014.2 1014.2 0.0
03/03:30pm 21.3 16.6 6.0 37 7.7 ESE 20 28 11 15 1014.4 1014.4 0.0
03/03:00pm 21.1 16.6 5.9 37 7.6 ESE 19 26 10 14 1014.8 1014.8 0.0
03/02:30pm 20.5 16.2 7.8 44 6.6 ESE 20 28 11 15 1015.1 1015.1 0.0
03/02:00pm 19.7 15.6 6.1 41 6.8 ESE 17 24 9 13 1015.2 1015.2 0.0
03/01:30pm 19.7 15.3 6.4 42 6.7 ESE 19 28 10 15 1015.5 1015.5 0.0
03/01:00pm 18.9 14.3 6.4 44 6.2 ESE 20 28 11 15 1015.7 1015.7 0.0
03/12:30pm 18.5 15.0 7.3 48 5.7 SE 15 20 8 11 1016.1 1016.1 0.0
03/12:00pm 18.2 14.7 7.3 49 5.5 SE 15 22 8 12 1016.2 1016.2 0.0
03/11:30am 17.9 14.9 7.6 51 5.2 ESE 13 20 7 11 1016.4 1016.4 0.0
03/11:00am 17.7 14.6 7.4 51 5.2 SE 13 22 7 12 1016.5 1016.5 0.0
03/10:30am 16.9 13.6 8.1 56 4.5 SE 15 20 8 11 1016.5 1016.5 0.0
03/10:00am 17.0 13.7 8.2 56 4.5 E 15 22 8 12 1016.7 1016.7 0.0
03/09:30am 15.2 12.4 8.4 64 3.4 ENE 13 20 7 11 1016.6 1016.6 0.0
03/09:00am 15.1 12.8 9.0 67 3.1 E 11 13 6 7 1016.6 1016.6 0.0
03/08:30am 14.1 12.7 8.7 70 2.7 SW 6 9 3 5 1016.3 1016.3 0.0
03/08:00am 12.7 10.9 8.0 73 2.3 W 7 11 4 6 1016.3 1016.3 0.0
03/07:30am 10.5 7.7 7.0 79 1.7 WNW 11 13 6 7 1016.1 1016.1 0.0
03/07:00am 8.5 6.0 6.6 88 0.9 WNW 9 11 5 6 1016.0 1016.0 0.0
03/06:30am 7.2 4.5 5.7 90 0.7 WNW 9 11 5 6 1015.7 1015.7 0.0
03/06:00am 6.7 4.3 5.2 90 0.7 WNW 7 9 4 5 1015.3 1015.3 0.0
03/05:30am 6.7 3.9 5.0 89 0.7 WNW 9 11 5 6 1015.2 1015.2 0.0
03/05:00am 7.2 4.4 5.3 88 0.8 NW 9 9 5 5 1015.0 1015.0 0.0
03/04:30am 6.4 3.5 4.6 88 0.8 NW 9 9 5 5 1015.0 1015.0 0.0
03/04:00am 6.8 4.0 5.1 89 0.7 NW 9 11 5 6 1015.1 1015.1 0.0
03/03:30am 7.2 4.7 4.7 84 1.1 WNW 7 9 4 5 1015.2 1015.2 0.0
03/03:00am 8.2 5.5 5.5 83 1.2 WNW 9 11 5 6 1015.4 1015.4 0.0
03/02:30am 8.1 6.4 5.7 85 1.1 WNW 4 11 2 6 1015.5 1015.5 0.0
03/02:00am 7.6 6.5 5.1 84 1.1 CALM 0 0 0 0 1016.0 1016.0 0.0
03/01:30am 7.8 6.7 5.1 83 1.2 CALM 0 0 0 0 1016.4 1016.4 0.0
03/01:00am 9.2 8.3 5.9 80 1.5 CALM 0 0 0 0 1016.5 1016.5 0.0
03/12:30am 10.6 8.5 6.7 77 1.8 S 7 11 4 6 1016.5 1016.5 0.0
03/12:00am 11.4 9.0 7.1 75 2.1 SSE 9 11 5 6 1016.8 1016.8 0.0
 
Date/Time
EDT
Temp
°C
App
Temp
°C
Dew
Point
°C
Rel
Hum
%
Delta-T
°C
Wind Press
QNH
hPa
Press
MSL
hPa
Rain since
9am
mm
Dir  Spd
km/h
Gust
km/h
Spd
kts
Gust
kts
02/11:30pm 10.4 7.5 6.4 76 1.9 SSE 11 13 6 7 1016.7 1016.7 0.0
02/11:00pm 10.7 8.1 6.1 73 2.1 SSE 9 11 5 6 1016.7 1016.7 0.0
02/10:30pm 10.5 7.1 5.9 73 2.1 SSE 13 13 7 7 1016.7 1016.7 0.0
02/10:00pm 10.8 7.4 5.8 71 2.3 SSE 13 15 7 8 1016.6 1016.6 0.0
02/09:30pm 11.7 9.0 5.8 67 2.7 SSE 9 15 5 8 1016.4 1016.4 0.0
02/09:00pm 12.8 9.0 5.9 63 3.2 SSE 15 20 8 11 1016.0 1016.0 0.0
02/08:30pm 13.9 9.1 5.8 58 3.8 S 20 26 11 14 1015.6 1015.6 0.0
02/08:00pm 14.9 10.2 6.0 55 4.3 S 20 26 11 14 1015.3 1015.3 0.0
02/07:30pm 15.7 10.6 7.7 59 4.0 S 24 30 13 16 1014.8 1014.8 0.0
02/07:00pm 16.5 11.1 8.0 57 4.3 S 26 33 14 18 1014.3 1014.3 0.0
02/06:30pm 16.8 10.5 7.4 54 4.7 S 30 39 16 21 1013.9 1013.9 0.0
02/06:00pm 17.6 11.9 8.2 54 4.8 SSE 28 39 15 21 1013.7 1013.7 0.0
02/05:30pm 18.0 11.5 8.3 53 5.0 SSE 32 41 17 22 1013.5 1013.5 0.0
02/05:00pm 18.5 12.1 8.5 52 5.2 S 32 43 17 23 1013.4 1013.4 0.0
02/04:30pm 19.6 13.4 9.5 52 5.4 S 32 39 17 21 1013.3 1013.3 0.0
02/04:00pm 19.5 13.6 9.1 51 5.5 S 30 37 16 20 1013.2 1013.2 0.0
02/03:30pm 19.2 13.8 9.4 53 5.2 S 28 37 15 20 1013.0 1013.0 0.0
02/03:00pm 20.2 14.1 9.7 51 5.6 S 32 41 17 22 1012.8 1012.8 0.0
02/02:30pm 20.0 14.8 10.4 54 5.2 S 28 37 15 20 1012.7 1012.7 0.0
02/02:00pm 19.5 13.3 11.3 59 4.5 S 35 44 19 24 1012.7 1012.7 0.0
02/01:30pm 21.6 16.4 10.1 48 6.2 SW 28 35 15 19 1012.5 1012.5 0.0
02/01:00pm 21.2 16.6 9.8 48 6.1 WNW 24 33 13 18 1012.3 1012.3 0.0
02/12:30pm 21.4 16.7 10.6 50 5.9 W 26 39 14 21 1012.3 1012.3 0.0
02/12:00pm 19.4 13.9 10.4 56 4.9 W 30 39 16 21 1012.4 1012.4 0.0
02/11:30am 19.0 14.5 10.0 56 4.8 WSW 24 37 13 20 1012.1 1012.1 0.0
02/11:00am 19.5 15.0 10.0 54 5.1 W 24 33 13 18 1011.9 1011.9 0.0
02/10:30am 19.5 15.6 9.4 52 5.3 WSW 20 32 11 17 1011.7 1011.7 0.0
02/10:00am 18.7 14.7 9.2 54 5.0 WSW 20 33 11 18 1011.5 1011.5 0.0
02/09:30am 18.3 15.0 9.4 56 4.7 W 17 24 9 13 1011.2 1011.2 0.0
02/09:00am 16.8 13.5 9.5 62 3.8 W 17 20 9 11 1011.2 1011.2 0.0
02/08:30am 16.1 12.5 10.0 67 3.2 W 19 28 10 15 1011.0 1011.0 0.0
02/08:00am 15.3 11.6 10.1 71 2.7 W 20 26 11 14 1010.9 1010.9 0.0
02/07:30am 15.1 12.1 10.5 74 2.4 W 17 20 9 11 1010.6 1010.6 0.0
02/07:00am 14.5 11.8 10.5 77 2.1 W 15 19 8 10 1009.9 1009.9 0.0
02/06:30am 14.3 12.0 10.3 77 2.1 WNW 13 17 7 9 1009.4 1009.4 0.0
02/06:00am 14.4 12.5 10.4 77 2.1 WNW 11 13 6 7 1009.0 1009.0 0.0
02/05:30am 14.3 12.3 10.3 77 2.1 W 11 13 6 7 1008.6 1008.6 0.0
02/05:00am 14.3 12.3 10.1 76 2.2 W 11 15 6 8 1008.3 1008.3 0.0
02/04:30am 14.4 12.0 10.2 76 2.2 W 13 17 7 9 1008.2 1008.2 0.0
02/04:00am 14.5 11.8 10.3 76 2.2 W 15 19 8 10 1008.0 1008.0 0.0
02/03:30am 14.2 12.4 10.8 80 1.8 WNW 11 13 6 7 1007.9 1007.9 0.0
02/03:00am 13.9 12.5 10.9 82 1.6 WNW 9 11 5 6 1008.0 1008.0 0.0
02/02:30am 13.7 12.2 10.7 82 1.6 NW 9 11 5 6 1008.0 1008.0 0.0
02/02:00am 13.6 12.2 10.8 83 1.5 NW 9 13 5 7 1008.2 1008.2 0.0
02/01:30am 13.4 12.0 10.9 85 1.3 NW 9 13 5 7 1008.5 1008.5 0.0
02/01:00am 12.8 11.8 11.0 89 0.9 NW 7 9 4 5 1008.3 1008.3 0.0
02/12:30am 11.8 11.9 10.0 89 0.9 CALM 0 0 0 0 1008.2 1008.2 0.0
02/12:00am 12.2 12.2 9.9 86 1.2 CALM 0 6 0 3 1008.5 1008.5 0.0
 
Date/Time
EDT
Temp
°C
App
Temp
°C
Dew
Point
°C
Rel
Hum
%
Delta-T
°C
Wind Press
QNH
hPa
Press
MSL
hPa
Rain since
9am
mm
Dir  Spd
km/h
Gust
km/h
Spd
kts
Gust
kts
01/11:30pm 11.8 10.1 10.0 89 0.9 SSE 9 11 5 6 1008.5 1008.5 0.0
01/11:00pm 11.9 10.1 9.5 85 1.2 SSE 9 11 5 6 1008.4 1008.4 0.0
01/10:30pm 12.5 10.5 10.0 85 1.3 SSE 11 13 6 7 1008.3 1008.3 0.0
01/10:00pm 13.0 11.4 10.2 83 1.4 S 9 11 5 6 1008.2 1008.2 0.0
01/09:30pm 13.6 12.1 10.4 81 1.7 SSE 9 11 5 6 1007.6 1007.6 0.0
01/09:00pm 14.4 11.8 10.6 78 2.0 SSE 15 17 8 9 1007.2 1007.2 0.0
01/08:30pm 15.3 12.3 10.5 73 2.5 S 17 24 9 13 1007.0 1007.0 0.0
01/08:00pm 16.6 12.3 10.7 68 3.2 S 24 30 13 16 1006.6 1006.6 0.0
01/07:30pm 17.6 13.9 11.4 67 3.4 S 22 28 12 15 1006.2 1006.2 0.0
01/07:00pm 18.7 15.0 11.5 63 4.0 S 22 28 12 15 1005.7 1005.7 0.0
01/06:30pm 19.1 15.5 11.9 63 4.0 S 22 28 12 15 1005.2 1005.2 0.0
01/06:00pm 19.8 16.1 11.6 59 4.5 SSW 22 28 12 15 1005.4 1005.4 0.0
01/05:30pm 19.0 15.5 10.8 59 4.4 S 20 26 11 14 1005.3 1005.3 0.0
01/05:00pm 19.9 16.5 11.4 58 4.7 S 20 24 11 13 1005.2 1005.2 0.0
01/04:30pm 19.6 16.4 11.1 58 4.6 S 19 28 10 15 1005.6 1005.6 0.0
01/04:00pm 20.3 17.0 11.5 57 4.9 SE 20 24 11 13 1005.9 1005.9 0.0
01/03:30pm 19.5 16.1 12.5 64 3.9 ESE 22 28 12 15 1005.9 1005.9 0.0
01/03:00pm 18.8 15.2 11.9 64 3.8 E 22 28 12 15 1006.4 1006.4 0.0
01/02:30pm 19.7 16.5 12.0 61 4.3 ESE 20 26 11 14 1006.5 1006.5 0.0
01/02:00pm 20.2 16.6 11.7 58 4.7 ESE 22 28 12 15 1006.7 1006.7 0.0
01/01:30pm 21.0 17.9 11.6 55 5.2 ESE 19 28 10 15 1007.0 1007.0 0.0
01/01:00pm 21.5 18.6 10.9 51 5.8 E 17 28 9 15 1007.2 1007.2 0.0
01/12:30pm 21.1 18.8 10.6 51 5.7 ESE 13 20 7 11 1007.5 1007.5 0.0
01/12:00pm 19.5 16.5 10.5 56 4.9 ESE 17 24 9 13 1008.1 1008.1 0.0
01/11:30am 19.7 17.6 11.2 58 4.7 ESE 13 26 7 14 1008.3 1008.3 0.0
01/11:00am 19.8 18.2 11.6 59 4.5 SSE 11 19 6 10 1008.4 1008.4 0.0

Other Formats:

Comma delimited format used in spreadsheet applications
http://www.bom.gov.au/fwo/IDV60801/IDV60801.94854.axf

JavaScript Object Notation format (JSON) in row-major order
http://www.bom.gov.au/fwo/IDV60801/IDV60801.94854.json